createdAt,value
2022-10-03T00:02:38.288Z,6.04
2022-10-03T00:05:24.514Z,5.94
2022-10-03T00:08:05.917Z,6.00
2022-10-03T00:10:48.894Z,6.04
2022-10-03T00:13:24.029Z,5.96
2022-10-03T00:16:03.194Z,5.95
2022-10-03T00:18:41.154Z,5.94
2022-10-03T00:21:25.072Z,5.91
2022-10-03T00:24:02.547Z,5.89
2022-10-03T00:26:42.090Z,5.87
2022-10-03T00:29:37.778Z,5.86
2022-10-03T00:32:26.402Z,5.86
2022-10-03T00:35:15.424Z,5.82
2022-10-03T00:37:55.663Z,5.81
2022-10-03T00:41:01.639Z,5.63
2022-10-03T00:43:57.949Z,5.76
2022-10-03T00:46:53.863Z,5.75
2022-10-03T00:49:53.958Z,5.78
2022-10-03T00:52:49.442Z,5.75
2022-10-03T00:55:27.732Z,5.75
2022-10-03T00:58:05.702Z,5.74
2022-10-03T01:00:35.434Z,5.69
2022-10-03T01:03:19.345Z,5.59
2022-10-03T01:06:02.317Z,5.68
2022-10-03T01:09:05.311Z,5.65
2022-10-03T01:11:43.002Z,5.62
2022-10-03T01:14:20.658Z,5.59
2022-10-03T01:17:03.066Z,5.57
2022-10-03T01:19:50.194Z,5.51
2022-10-03T01:22:43.331Z,5.62
2022-10-03T01:25:20.693Z,5.61
2022-10-03T01:28:17.688Z,5.46
2022-10-03T01:30:51.081Z,5.51
2022-10-03T01:33:27.962Z,5.48
2022-10-03T01:36:01.984Z,5.61
2022-10-03T01:38:37.394Z,5.57
2022-10-03T01:41:10.493Z,5.49
2022-10-03T01:43:43.502Z,5.53
2022-10-03T01:46:18.899Z,5.56
2022-10-03T01:48:55.066Z,5.49
2022-10-03T01:51:29.993Z,5.43
2022-10-03T01:54:08.807Z,5.42
2022-10-03T01:56:42.518Z,5.41
2022-10-03T01:59:15.227Z,5.41
2022-10-03T02:01:51.251Z,5.37
2022-10-03T02:04:32.829Z,5.29
2022-10-03T02:07:09.169Z,5.30
2022-10-03T02:09:45.420Z,5.32
2022-10-03T02:12:18.069Z,5.36
2022-10-03T02:14:55.666Z,5.34
2022-10-03T02:17:31.348Z,5.31
2022-10-03T02:20:07.815Z,5.23
2022-10-03T02:22:42.645Z,5.24
2022-10-03T02:25:21.990Z,5.22
2022-10-03T02:28:30.434Z,5.25
2022-10-03T02:31:18.659Z,5.19
2022-10-03T02:34:07.919Z,5.20
2022-10-03T02:37:08.247Z,5.18
2022-10-03T02:40:20.549Z,5.21
2022-10-03T02:43:26.944Z,5.24
2022-10-03T02:46:40.130Z,5.18
2022-10-03T02:49:35.334Z,5.17
2022-10-03T02:52:19.207Z,5.13
2022-10-03T02:54:57.783Z,5.07
2022-10-03T02:58:05.537Z,5.17
2022-10-03T03:00:49.292Z,5.12
2022-10-03T03:03:41.481Z,5.07
2022-10-03T03:06:38.043Z,5.02
2022-10-03T03:09:29.532Z,5.05
2022-10-03T03:12:41.070Z,4.97
2022-10-03T03:15:50.917Z,4.98
2022-10-03T03:18:34.471Z,4.95
2022-10-03T03:21:11.599Z,4.95
2022-10-03T03:24:18.064Z,5.08
2022-10-03T03:26:56.888Z,4.93
2022-10-03T03:29:37.743Z,5.00
2022-10-03T03:32:15.106Z,4.96
2022-10-03T03:34:52.415Z,4.97
2022-10-03T03:37:28.816Z,4.90
2022-10-03T03:40:13.328Z,4.99
2022-10-03T03:43:01.979Z,4.98
2022-10-03T03:45:45.605Z,5.00
2022-10-03T03:48:42.373Z,4.97
2022-10-03T03:51:22.875Z,5.02
2022-10-03T03:54:12.169Z,5.07
2022-10-03T03:57:04.529Z,5.16
2022-10-03T03:59:48.695Z,5.19
2022-10-03T04:02:31.693Z,5.27
2022-10-03T04:05:13.275Z,5.32
2022-10-03T04:07:51.925Z,5.34
2022-10-03T04:10:32.203Z,5.41
2022-10-03T04:13:30.174Z,5.43
2022-10-03T04:16:38.733Z,5.45
2022-10-03T04:19:11.827Z,5.36
2022-10-03T04:21:56.055Z,5.48
2022-10-03T04:25:05.393Z,5.55
2022-10-03T04:27:55.399Z,5.61
2022-10-03T04:30:35.453Z,5.62
2022-10-03T04:33:26.963Z,5.71
2022-10-03T04:36:22.350Z,5.80
2022-10-03T04:39:00.530Z,5.83
2022-10-03T04:41:43.010Z,5.90
2022-10-03T04:44:27.950Z,5.91
2022-10-03T04:47:02.792Z,5.93
2022-10-03T04:49:36.957Z,6.01
2022-10-03T04:52:14.560Z,6.06
2022-10-03T04:54:50.939Z,6.12
2022-10-03T04:57:33.035Z,6.19
2022-10-03T05:00:15.464Z,6.18
2022-10-03T05:02:51.442Z,6.20
2022-10-03T05:05:30.567Z,6.22
2022-10-03T05:08:14.958Z,6.26
2022-10-03T05:10:56.895Z,6.25
2022-10-03T05:13:39.150Z,6.25
2022-10-03T05:16:17.285Z,6.24
2022-10-03T05:18:51.439Z,6.23
2022-10-03T05:21:32.956Z,6.21
2022-10-03T05:24:08.256Z,6.12
2022-10-03T05:26:46.299Z,6.17
2022-10-03T05:29:22.664Z,6.17
2022-10-03T05:32:05.664Z,6.17
2022-10-03T05:34:47.974Z,6.12
2022-10-03T05:37:47.480Z,5.91
2022-10-03T05:40:20.110Z,6.01
2022-10-03T05:43:05.266Z,5.95
2022-10-03T05:45:45.811Z,6.00
2022-10-03T05:48:20.072Z,5.92
2022-10-03T05:51:33.917Z,5.92
2022-10-03T05:54:36.029Z,5.92
2022-10-03T05:57:49.158Z,5.90
2022-10-03T06:00:21.319Z,5.83
2022-10-03T06:03:24.940Z,5.95
2022-10-03T06:06:01.728Z,5.99
2022-10-03T06:08:51.627Z,6.09
2022-10-03T06:11:35.914Z,6.11
2022-10-03T06:14:32.598Z,6.26
2022-10-03T06:17:16.775Z,6.37
2022-10-03T06:19:50.911Z,6.53
2022-10-03T06:22:47.203Z,6.67
2022-10-03T06:26:00.507Z,6.81
2022-10-03T06:28:51.904Z,6.89
2022-10-03T06:31:54.931Z,7.06
2022-10-03T06:35:23.735Z,7.13
2022-10-03T06:38:24.655Z,7.33
2022-10-03T06:41:13.043Z,7.39
2022-10-03T06:43:57.008Z,7.44
2022-10-03T06:46:46.337Z,7.53
2022-10-03T06:49:36.531Z,7.86
2022-10-03T06:52:27.839Z,8.15
2022-10-03T06:55:35.160Z,8.48
2022-10-03T06:58:23.211Z,8.85
2022-10-03T07:01:05.940Z,9.13
2022-10-03T07:03:56.385Z,9.39
2022-10-03T07:07:08.887Z,9.40
2022-10-03T07:10:11.801Z,9.33
2022-10-03T07:13:02.408Z,9.40
2022-10-03T07:16:25.895Z,9.48
2022-10-03T07:19:21.933Z,9.57
2022-10-03T07:22:40.187Z,9.62
2022-10-03T07:25:27.231Z,9.75
2022-10-03T07:28:17.072Z,9.77
2022-10-03T07:30:59.524Z,9.94
2022-10-03T07:33:54.514Z,10.02
2022-10-03T07:36:49.970Z,10.29
2022-10-03T07:39:43.347Z,10.42
2022-10-03T07:42:35.070Z,10.30
2022-10-03T07:45:30.130Z,10.13
2022-10-03T07:48:24.298Z,10.30
2022-10-03T07:51:13.256Z,10.39
2022-10-03T07:54:15.206Z,10.59
2022-10-03T07:57:00.600Z,10.77
2022-10-03T07:59:50.028Z,10.90
2022-10-03T08:02:41.095Z,11.25
2022-10-03T08:05:25.082Z,11.32
2022-10-03T08:08:13.016Z,11.45
2022-10-03T08:11:07.858Z,11.79
2022-10-03T08:13:55.250Z,11.87
2022-10-03T08:16:42.167Z,12.43
2022-10-03T08:19:23.871Z,12.70
2022-10-03T08:22:04.304Z,12.44
2022-10-03T08:24:51.094Z,12.65
2022-10-03T08:27:52.797Z,12.59
2022-10-03T08:30:23.717Z,12.85
2022-10-03T08:32:59.566Z,13.07
2022-10-03T08:35:38.678Z,13.07
2022-10-03T08:38:34.052Z,13.24
2022-10-03T08:41:34.318Z,13.49
2022-10-03T08:44:46.962Z,13.90
2022-10-03T08:47:40.074Z,13.56
2022-10-03T08:50:40.053Z,13.84
2022-10-03T08:54:05.110Z,14.04
2022-10-03T08:56:52.587Z,14.20
2022-10-03T09:00:02.653Z,14.37
2022-10-03T09:03:31.975Z,14.19
2022-10-03T09:06:24.948Z,14.69
2022-10-03T09:09:14.106Z,14.54
2022-10-03T09:12:01.495Z,14.85
2022-10-03T09:14:41.905Z,14.77
2022-10-03T09:17:53.805Z,14.50
2022-10-03T09:20:44.785Z,13.81
2022-10-03T09:23:47.387Z,13.84
2022-10-03T09:26:48.220Z,14.30
2022-10-03T09:29:46.663Z,14.67
2022-10-03T09:33:05.138Z,15.05
2022-10-03T09:36:00.713Z,15.26
2022-10-03T09:38:45.343Z,15.34
2022-10-03T09:41:54.362Z,15.48
2022-10-03T09:44:52.371Z,15.15
2022-10-03T09:47:57.419Z,15.21
2022-10-03T09:51:06.278Z,15.45
2022-10-03T09:54:01.318Z,14.85
2022-10-03T09:56:55.563Z,15.50
2022-10-03T09:59:40.427Z,15.73
2022-10-03T10:02:33.859Z,15.38
2022-10-03T10:05:27.939Z,15.85
2022-10-03T10:08:48.532Z,15.54
2022-10-03T10:11:35.092Z,15.56
2022-10-03T10:14:29.625Z,15.46
2022-10-03T10:17:36.044Z,15.50
2022-10-03T10:20:19.444Z,15.74
2022-10-03T10:23:18.253Z,15.67
2022-10-03T10:26:06.499Z,15.83
2022-10-03T10:29:11.485Z,16.09
2022-10-03T10:32:17.839Z,15.75
2022-10-03T10:35:23.549Z,15.69
2022-10-03T10:38:28.119Z,15.52
2022-10-03T10:41:39.724Z,16.27
2022-10-03T10:44:47.431Z,16.50
2022-10-03T10:47:55.318Z,16.56
2022-10-03T10:51:07.911Z,15.45
2022-10-03T10:54:12.771Z,16.26
2022-10-03T10:57:03.623Z,15.61
2022-10-03T11:00:07.881Z,16.10
2022-10-03T11:03:34.600Z,16.31
2022-10-03T11:06:35.650Z,15.68
2022-10-03T11:09:35.415Z,16.36
2022-10-03T11:12:40.152Z,16.36
2022-10-03T11:15:50.668Z,16.07
2022-10-03T11:18:55.351Z,16.50
2022-10-03T11:22:02.278Z,16.04
2022-10-03T11:25:12.843Z,16.48
2022-10-03T11:28:30.836Z,16.50
2022-10-03T11:31:27.980Z,16.34
2022-10-03T11:34:27.579Z,16.54
2022-10-03T11:37:19.826Z,16.79
2022-10-03T11:39:58.099Z,16.40
2022-10-03T11:42:37.476Z,16.50
2022-10-03T11:45:08.168Z,16.56
2022-10-03T11:47:56.218Z,16.57
2022-10-03T11:50:35.063Z,16.72
2022-10-03T11:53:26.970Z,16.07
2022-10-03T11:56:09.632Z,16.59
2022-10-03T11:58:58.586Z,16.46
2022-10-03T12:01:39.042Z,17.00
2022-10-03T12:04:18.603Z,17.26
2022-10-03T12:07:17.612Z,17.11
2022-10-03T12:09:57.328Z,17.44
2022-10-03T12:12:35.285Z,17.97
2022-10-03T12:15:20.029Z,17.86
2022-10-03T12:17:56.518Z,17.46
2022-10-03T12:20:35.514Z,17.33
2022-10-03T12:23:17.685Z,17.30
2022-10-03T12:25:49.165Z,17.22
2022-10-03T12:28:23.080Z,16.42
2022-10-03T12:30:56.293Z,16.44
2022-10-03T12:33:39.223Z,16.94
2022-10-03T12:36:15.312Z,17.16
2022-10-03T12:39:01.023Z,16.01
2022-10-03T12:41:50.419Z,16.36
2022-10-03T12:44:29.724Z,16.93
2022-10-03T12:47:14.360Z,16.91
2022-10-03T12:49:53.952Z,16.67
2022-10-03T12:52:29.299Z,17.12
2022-10-03T12:55:13.066Z,16.93
2022-10-03T12:57:49.915Z,17.10
2022-10-03T13:00:22.623Z,17.17
2022-10-03T13:03:07.249Z,16.89
2022-10-03T13:05:44.261Z,16.62
2022-10-03T13:08:28.601Z,16.85
2022-10-03T13:11:01.696Z,17.06
2022-10-03T13:13:34.607Z,17.27
2022-10-03T13:16:21.071Z,17.19
2022-10-03T13:19:05.588Z,17.12
2022-10-03T13:21:53.327Z,16.98
2022-10-03T13:24:32.116Z,16.44
2022-10-03T13:27:10.660Z,16.45
2022-10-03T13:29:43.519Z,16.46
2022-10-03T13:32:18.518Z,16.77
2022-10-03T13:35:24.341Z,16.83
2022-10-03T13:38:28.384Z,16.84
2022-10-03T13:41:12.607Z,16.95
2022-10-03T13:43:46.814Z,17.02
2022-10-03T13:46:18.432Z,17.24
2022-10-03T13:48:52.727Z,17.17
2022-10-03T13:51:29.157Z,17.23
2022-10-03T13:54:02.274Z,16.65
2022-10-03T13:56:44.286Z,16.80
2022-10-03T13:59:32.372Z,16.83
2022-10-03T14:02:12.549Z,16.72
2022-10-03T14:05:01.567Z,16.69
2022-10-03T14:07:42.402Z,17.50
2022-10-03T14:10:26.313Z,17.94
2022-10-03T14:13:10.641Z,17.74
2022-10-03T14:15:48.420Z,17.42
2022-10-03T14:18:38.265Z,17.60
2022-10-03T14:21:38.127Z,17.54
2022-10-03T14:24:17.213Z,17.25
2022-10-03T14:26:52.943Z,17.22
2022-10-03T14:29:33.429Z,17.12
2022-10-03T14:32:28.237Z,16.86
2022-10-03T14:35:05.899Z,17.11
2022-10-03T14:37:41.563Z,17.19
2022-10-03T14:40:18.047Z,17.02
2022-10-03T14:42:57.897Z,17.11
2022-10-03T14:45:31.299Z,17.32
2022-10-03T14:48:08.304Z,17.25
2022-10-03T14:50:41.607Z,17.26
2022-10-03T14:53:19.973Z,16.43
2022-10-03T14:55:58.305Z,16.64
2022-10-03T14:58:29.596Z,16.91
2022-10-03T15:01:10.671Z,17.00
2022-10-03T15:03:43.709Z,17.14
2022-10-03T15:06:32.946Z,17.09
2022-10-03T15:09:03.121Z,17.05
2022-10-03T15:11:35.537Z,17.10
2022-10-03T15:14:06.454Z,17.00
2022-10-03T15:16:40.942Z,17.09
2022-10-03T15:19:17.284Z,17.12
2022-10-03T15:21:46.853Z,17.03
2022-10-03T15:24:25.042Z,17.01
2022-10-03T15:26:59.552Z,16.72
2022-10-03T15:29:28.531Z,16.83
2022-10-03T15:32:06.854Z,16.77
2022-10-03T15:34:50.472Z,16.68
2022-10-03T15:37:22.665Z,16.61
2022-10-03T15:39:53.213Z,16.69
2022-10-03T15:42:24.147Z,16.62
2022-10-03T15:44:57.846Z,16.48
2022-10-03T15:47:29.335Z,16.51
2022-10-03T15:50:02.184Z,16.48
2022-10-03T15:52:37.538Z,16.35
2022-10-03T15:55:11.869Z,16.09
2022-10-03T15:57:47.596Z,15.97
2022-10-03T16:00:26.106Z,15.97
2022-10-03T16:03:06.264Z,15.94
2022-10-03T16:05:34.872Z,15.85
2022-10-03T16:08:08.584Z,15.76
2022-10-03T16:10:40.935Z,15.74
2022-10-03T16:13:25.111Z,15.52
2022-10-03T16:16:04.051Z,15.50
2022-10-03T16:18:54.805Z,15.41
2022-10-03T16:21:38.579Z,15.38
2022-10-03T16:24:18.345Z,15.20
2022-10-03T16:26:55.403Z,15.17
2022-10-03T16:29:27.114Z,15.09
2022-10-03T16:32:02.010Z,15.01
2022-10-03T16:34:34.329Z,14.87
2022-10-03T16:37:04.086Z,14.71
2022-10-03T16:39:36.124Z,14.56
2022-10-03T16:42:12.974Z,14.41
2022-10-03T16:44:50.058Z,14.36
2022-10-03T16:47:21.651Z,14.23
2022-10-03T16:50:13.993Z,13.97
2022-10-03T16:52:43.955Z,13.90
2022-10-03T16:55:17.204Z,13.88
2022-10-03T16:57:49.115Z,13.79
2022-10-03T17:00:21.852Z,13.69
2022-10-03T17:02:50.394Z,13.38
2022-10-03T17:05:20.514Z,13.30
2022-10-03T17:07:52.684Z,13.21
2022-10-03T17:10:32.007Z,13.11
2022-10-03T17:13:03.897Z,12.89
2022-10-03T17:15:35.133Z,12.80
2022-10-03T17:18:17.187Z,12.67
2022-10-03T17:20:49.414Z,12.66
2022-10-03T17:23:28.847Z,12.44
2022-10-03T17:26:06.638Z,12.40
2022-10-03T17:28:42.374Z,12.31
2022-10-03T17:31:28.894Z,12.22
2022-10-03T17:34:05.988Z,12.03
2022-10-03T17:36:57.547Z,11.98
2022-10-03T17:39:39.856Z,11.90
2022-10-03T17:42:19.796Z,11.86
2022-10-03T17:44:59.641Z,11.78
2022-10-03T17:47:35.786Z,11.60
2022-10-03T17:50:08.730Z,11.50
2022-10-03T17:52:41.716Z,11.46
2022-10-03T17:55:18.904Z,11.41
2022-10-03T17:57:50.872Z,11.30
2022-10-03T18:00:21.155Z,11.20
2022-10-03T18:02:57.506Z,11.15
2022-10-03T18:05:29.254Z,11.14
2022-10-03T18:08:05.943Z,11.02
2022-10-03T18:10:37.320Z,10.95
2022-10-03T18:13:23.818Z,10.91
2022-10-03T18:16:11.162Z,10.79
2022-10-03T18:19:08.443Z,10.79
2022-10-03T18:21:48.019Z,10.67
2022-10-03T18:24:51.965Z,10.66
2022-10-03T18:27:54.086Z,10.60
2022-10-03T18:30:29.104Z,10.55
2022-10-03T18:32:59.009Z,10.54
2022-10-03T18:35:29.727Z,10.44
2022-10-03T18:38:05.587Z,10.46
2022-10-03T18:40:38.320Z,10.44
2022-10-03T18:43:07.693Z,10.38
2022-10-03T18:45:42.913Z,10.27
2022-10-03T18:48:14.059Z,10.25
2022-10-03T18:50:54.986Z,10.17
2022-10-03T18:53:31.079Z,10.17
2022-10-03T18:56:03.523Z,10.05
2022-10-03T18:58:35.327Z,10.01
2022-10-03T19:01:06.825Z,9.91
2022-10-03T19:03:39.587Z,9.87
2022-10-03T19:06:19.182Z,9.82
2022-10-03T19:08:51.223Z,9.75
2022-10-03T19:11:25.958Z,9.77
2022-10-03T19:14:00.989Z,9.66
2022-10-03T19:16:43.130Z,9.75
2022-10-03T19:19:19.016Z,9.76
2022-10-03T19:21:48.497Z,9.69
2022-10-03T19:24:34.503Z,9.57
2022-10-03T19:27:18.382Z,9.51
2022-10-03T19:29:49.267Z,9.43
2022-10-03T19:32:23.213Z,9.42
2022-10-03T19:34:52.958Z,9.35
2022-10-03T19:37:45.114Z,9.39
2022-10-03T19:40:16.697Z,9.43
2022-10-03T19:42:51.060Z,9.41
2022-10-03T19:45:20.022Z,9.43
2022-10-03T19:47:53.212Z,9.48
2022-10-03T19:50:25.844Z,9.42
2022-10-03T19:52:53.733Z,9.37
2022-10-03T19:55:24.602Z,9.34
2022-10-03T19:57:55.890Z,9.34
2022-10-03T20:00:30.108Z,9.30
2022-10-03T20:03:07.017Z,9.30
2022-10-03T20:05:44.357Z,9.26
2022-10-03T20:08:24.181Z,9.20
2022-10-03T20:11:16.998Z,9.14
2022-10-03T20:13:48.956Z,9.13
2022-10-03T20:16:18.441Z,9.05
2022-10-03T20:18:49.607Z,8.95
2022-10-03T20:21:20.313Z,8.94
2022-10-03T20:23:49.220Z,8.83
2022-10-03T20:26:26.724Z,8.82
2022-10-03T20:29:12.311Z,8.75
2022-10-03T20:31:40.668Z,8.73
2022-10-03T20:34:14.827Z,8.57
2022-10-03T20:36:48.870Z,8.61
2022-10-03T20:39:20.318Z,8.69
2022-10-03T20:42:01.474Z,8.62
2022-10-03T20:44:49.987Z,8.60
2022-10-03T20:47:27.908Z,8.56
2022-10-03T20:49:59.300Z,8.47
2022-10-03T20:52:27.842Z,8.50
2022-10-03T20:55:00.466Z,8.47
2022-10-03T20:57:30.566Z,8.42
2022-10-03T21:00:07.361Z,8.37
2022-10-03T21:02:41.820Z,8.29
2022-10-03T21:05:20.731Z,8.23
2022-10-03T21:07:52.732Z,8.07
2022-10-03T21:10:28.762Z,8.16
2022-10-03T21:12:59.036Z,8.09
2022-10-03T21:15:40.608Z,8.24
2022-10-03T21:18:16.880Z,8.33
2022-10-03T21:20:47.536Z,8.47
2022-10-03T21:23:20.584Z,8.47
2022-10-03T21:25:52.215Z,8.54
2022-10-03T21:28:25.567Z,8.54
2022-10-03T21:31:11.950Z,8.59
2022-10-03T21:33:46.982Z,8.62
2022-10-03T21:36:23.379Z,8.70
2022-10-03T21:38:52.231Z,8.80
2022-10-03T21:41:38.576Z,8.69
2022-10-03T21:44:17.620Z,8.68
2022-10-03T21:46:57.503Z,8.71
2022-10-03T21:49:44.447Z,8.78
2022-10-03T21:52:27.911Z,8.82
2022-10-03T21:55:07.700Z,8.75
2022-10-03T21:57:49.436Z,8.77
2022-10-03T22:00:18.252Z,8.70
2022-10-03T22:02:57.339Z,8.65
2022-10-03T22:05:37.248Z,8.56
2022-10-03T22:08:15.489Z,8.44
2022-10-03T22:10:58.935Z,8.45
2022-10-03T22:13:31.784Z,8.48
2022-10-03T22:16:07.952Z,8.49
2022-10-03T22:18:58.924Z,8.50
2022-10-03T22:21:28.532Z,8.43
2022-10-03T22:24:04.469Z,8.42
2022-10-03T22:26:38.373Z,8.51
2022-10-03T22:29:11.935Z,8.54
2022-10-03T22:31:47.862Z,8.37
2022-10-03T22:34:31.295Z,8.46
2022-10-03T22:36:59.797Z,8.34
2022-10-03T22:39:29.514Z,8.37
2022-10-03T22:41:59.501Z,8.20
2022-10-03T22:44:31.654Z,8.24
2022-10-03T22:47:03.432Z,8.17
2022-10-03T22:49:37.073Z,8.16
2022-10-03T22:52:08.344Z,7.93
2022-10-03T22:54:40.896Z,8.15
2022-10-03T22:57:10.704Z,8.10
2022-10-03T22:59:44.151Z,8.15
2022-10-03T23:02:11.994Z,8.02
2022-10-03T23:04:46.206Z,8.10
2022-10-03T23:07:47.161Z,8.20
2022-10-03T23:10:31.786Z,8.21
2022-10-03T23:13:05.648Z,8.26
2022-10-03T23:15:37.502Z,8.17
2022-10-03T23:18:37.068Z,8.09
2022-10-03T23:21:08.461Z,8.14
2022-10-03T23:23:57.919Z,8.09
2022-10-03T23:27:02.209Z,8.11
2022-10-03T23:29:30.039Z,8.13
2022-10-03T23:32:07.341Z,8.18
2022-10-03T23:34:46.612Z,8.07
2022-10-03T23:37:39.328Z,8.11
2022-10-03T23:40:41.275Z,8.17
2022-10-03T23:43:30.810Z,8.04
2022-10-03T23:46:01.394Z,8.07
2022-10-03T23:48:32.309Z,8.05
2022-10-03T23:51:02.444Z,8.11
2022-10-03T23:53:35.072Z,8.17
2022-10-03T23:56:04.656Z,8.14
2022-10-03T23:58:34.932Z,8.12
